Time;durP1;ratioP1;P1;durP2;ratioP2;P2;SDS_P1;SDS_P2;PMS_P1;PMS_P2;Temp;Humidity;BMP_temperature;BMP_pressure;BME280_temperature;BME280_humidity;BME280_pressure;Samples;Min_cycle;Max_cycle;Signal;HPM_P1;HPM_P2
2021/06/10 00:04:46;;;;;;;20.23;16.40;;;;;;;16.28;100.00;98753.31;3866490;75;43951;-24
2021/06/10 00:09:52;;;;;;;18.02;15.60;;;;;;;16.25;100.00;98754.55;3868893;75;44050;-23
2021/06/10 00:14:58;;;;;;;18.07;15.72;;;;;;;16.16;100.00;98749.72;3867929;75;44077;-23
2021/06/10 00:20:07;;;;;;;17.82;15.40;;;;;;;16.08;100.00;98751.70;3905600;74;44092;-23
2021/06/10 00:25:15;;;;;;;17.80;15.63;;;;;;;16.07;100.00;98752.23;3918627;74;44478;-23
2021/06/10 00:30:22;;;;;;;20.48;16.32;;;;;;;16.06;100.00;98739.66;3919090;74;44000;-22
2021/06/10 00:35:30;;;;;;;22.52;18.00;;;;;;;15.98;100.00;98745.20;3923051;74;43712;-23
2021/06/10 00:40:36;;;;;;;22.00;17.73;;;;;;;15.91;100.00;98746.47;3919790;74;43435;-23
2021/06/10 00:45:43;;;;;;;19.57;15.03;;;;;;;15.82;100.00;98738.03;3915027;74;44510;-24
2021/06/10 00:50:51;;;;;;;19.23;15.88;;;;;;;15.77;100.00;98737.24;3911594;74;42824;-23
2021/06/10 00:55:59;;;;;;;19.12;16.65;;;;;;;15.70;100.00;98746.66;3921909;74;44704;-23
2021/06/10 01:01:07;;;;;;;19.45;16.52;;;;;;;15.63;100.00;98738.93;3916378;74;44058;-23
2021/06/10 01:11:38;;;;;;;20.50;17.05;;;;;;;15.58;100.00;98746.81;3994115;73;27235;-19
2021/06/10 01:16:46;;;;;;;15.68;13.40;;;;;;;15.49;100.00;98745.19;3925738;73;43626;-21
2021/06/10 01:27:25;;;;;;;19.82;15.78;;;;;;;15.45;100.00;98748.79;4003156;73;27154;-20
2021/06/10 01:32:31;;;;;;;16.75;14.83;;;;;;;15.39;100.00;98743.58;3929314;73;44136;-21
2021/06/10 01:37:39;;;;;;;17.85;15.48;;;;;;;15.31;100.00;98747.75;3925580;73;44634;-21
2021/06/10 01:42:45;;;;;;;19.85;16.95;;;;;;;15.27;100.00;98738.80;3932678;73;43320;-22
2021/06/10 01:47:53;;;;;;;21.20;17.20;;;;;;;15.25;100.00;98736.25;3941650;75;44064;-22
2021/06/10 01:53:02;;;;;;;19.85;15.98;;;;;;;15.21;100.00;98736.31;3908948;75;43545;-22
2021/06/10 01:58:10;;;;;;;15.63;13.55;;;;;;;15.19;100.00;98734.28;3912699;73;44088;-21
2021/06/10 02:03:16;;;;;;;16.65;14.87;;;;;;;15.18;100.00;98729.88;3932404;73;44016;-22
2021/06/10 02:08:24;;;;;;;15.95;14.23;;;;;;;15.17;100.00;98734.98;3940108;73;43988;-21
2021/06/10 02:13:32;;;;;;;18.25;15.78;;;;;;;15.05;100.00;98728.63;3931584;73;44207;-21
2021/06/10 02:18:41;;;;;;;17.07;14.75;;;;;;;14.96;100.00;98736.52;3931205;75;43422;-22
2021/06/10 02:23:49;;;;;;;15.72;13.98;;;;;;;14.94;100.00;98746.17;3918820;75;43682;-22
2021/06/10 02:28:55;;;;;;;17.23;14.20;;;;;;;14.91;100.00;98739.77;3926816;73;43291;-22
2021/06/10 02:34:02;;;;;;;15.83;14.13;;;;;;;14.87;100.00;98738.44;3926931;73;43501;-21
2021/06/10 02:39:10;;;;;;;19.62;14.93;;;;;;;14.83;100.00;98741.70;3932569;74;43374;-21
2021/06/10 02:44:17;;;;;;;17.75;14.70;;;;;;;14.79;100.00;98742.05;3910013;73;44427;-22
2021/06/10 02:49:24;;;;;;;17.87;15.00;;;;;;;14.80;100.00;98745.63;3931974;75;43269;-22
2021/06/10 02:54:31;;;;;;;20.43;16.20;;;;;;;14.76;100.00;98748.35;3920555;73;43761;-23
2021/06/10 02:59:38;;;;;;;20.17;16.70;;;;;;;14.78;100.00;98748.50;3924878;73;43787;-22
2021/06/10 03:04:45;;;;;;;16.90;14.23;;;;;;;14.69;100.00;98748.23;3916791;73;43493;-23
2021/06/10 03:09:52;;;;;;;20.77;16.62;;;;;;;14.70;100.00;98735.53;3940987;75;43477;-21
2021/06/10 03:15:00;;;;;;;16.97;14.75;;;;;;;14.71;100.00;98733.98;3915087;73;44074;-21
2021/06/10 03:20:10;;;;;;;17.30;15.40;;;;;;;14.77;100.00;98738.67;3912057;75;43702;-21
2021/06/10 03:25:17;;;;;;;23.75;15.35;;;;;;;14.75;100.00;98734.46;3903507;75;43621;-24
2021/06/10 03:30:25;;;;;;;24.18;15.58;;;;;;;14.72;100.00;98726.18;3910969;74;43477;-22
2021/06/10 03:35:33;;;;;;;19.95;15.30;;;;;;;14.70;100.00;98726.88;3885085;75;43727;-23
2021/06/10 03:40:40;;;;;;;24.98;16.27;;;;;;;14.70;100.00;98722.80;3906648;74;43254;-22
2021/06/10 03:45:48;;;;;;;58.73;16.48;;;;;;;14.74;100.00;98719.21;3896494;74;43388;-23
2021/06/10 03:50:54;;;;;;;49.70;16.65;;;;;;;14.73;100.00;98719.73;3904963;75;44002;-23
2021/06/10 03:55:59;;;;;;;23.52;14.80;;;;;;;14.70;100.00;98724.16;3893016;75;43581;-23
2021/06/10 04:01:06;;;;;;;26.50;13.20;;;;;;;14.84;100.00;98720.33;3894241;74;43359;-23
2021/06/10 04:06:15;;;;;;;18.20;14.03;;;;;;;14.92;100.00;98722.97;3895369;75;44075;-23
2021/06/10 04:11:21;;;;;;;17.57;15.20;;;;;;;15.03;100.00;98723.89;3886727;74;44044;-23
2021/06/10 04:16:28;;;;;;;16.55;14.47;;;;;;;15.07;100.00;98725.72;3903290;74;43320;-23
2021/06/10 04:21:36;;;;;;;19.10;14.35;;;;;;;15.12;100.00;98723.31;3903392;74;44128;-23
2021/06/10 04:26:43;;;;;;;21.65;14.60;;;;;;;15.19;100.00;98732.93;3894661;74;44087;-23
2021/06/10 04:31:51;;;;;;;17.37;14.00;;;;;;;15.24;100.00;98734.56;3889630;75;43406;-23
2021/06/10 04:36:57;;;;;;;21.45;14.43;;;;;;;15.35;100.00;98730.04;3905855;75;43397;-23
2021/06/10 04:42:04;;;;;;;18.75;14.70;;;;;;;15.45;100.00;98728.95;3902933;74;44054;-23
2021/06/10 04:47:10;;;;;;;17.17;14.63;;;;;;;15.58;100.00;98731.02;3904240;75;43360;-23
2021/06/10 04:52:16;;;;;;;21.50;15.08;;;;;;;15.66;100.00;98730.42;3893205;74;44039;-23
2021/06/10 04:57:23;;;;;;;39.78;15.88;;;;;;;15.62;100.00;98726.38;3912392;74;43464;-23
2021/06/10 05:02:29;;;;;;;140.52;18.32;;;;;;;15.56;100.00;98729.33;3899415;75;44050;-23
2021/06/10 05:07:35;;;;;;;53.50;15.43;;;;;;;15.59;100.00;98732.17;3905807;75;43694;-23
2021/06/10 05:12:41;;;;;;;124.02;17.00;;;;;;;15.65;100.00;98729.23;3893892;74;43107;-23
2021/06/10 05:17:49;;;;;;;55.75;16.77;;;;;;;15.66;100.00;98734.99;3897415;74;43670;-23
2021/06/10 05:28:08;;;;;;;17.85;15.30;;;;;;;15.78;100.00;98729.42;3990299;72;27610;-23
2021/06/10 05:33:14;;;;;;;19.48;15.50;;;;;;;15.98;100.00;98728.91;3927020;75;42981;-22
2021/06/10 05:38:21;;;;;;;17.25;14.65;;;;;;;16.17;100.00;98728.81;3930359;75;43329;-24
2021/06/10 05:43:28;;;;;;;20.60;16.73;;;;;;;16.23;100.00;98726.70;3921285;73;43655;-23
2021/06/10 05:48:35;;;;;;;17.95;15.20;;;;;;;16.33;100.00;98727.23;3921187;73;43369;-23
2021/06/10 05:53:41;;;;;;;18.90;16.82;;;;;;;16.53;100.00;98726.62;3929978;75;44086;-23
2021/06/10 06:03:59;;;;;;;18.40;16.40;;;;;;;16.46;100.00;98729.79;3944237;73;27220;-22
2021/06/10 06:09:08;;;;;;;18.80;16.37;;;;;;;16.52;100.00;98737.70;3893605;74;43565;-24
2021/06/10 06:14:16;;;;;;;21.17;15.28;;;;;;;16.64;100.00;98739.71;3898454;75;43722;-24
2021/06/10 06:19:22;;;;;;;18.52;16.52;;;;;;;16.70;100.00;98737.27;3897903;74;44050;-25
2021/06/10 06:29:41;;;;;;;19.75;16.00;;;;;;;16.92;100.00;98749.84;3995334;72;27260;-22
2021/06/10 06:40:01;;;;;;;16.73;14.93;;;;;;;17.29;100.00;98742.13;3985894;73;27731;-22
2021/06/10 06:45:09;;;;;;;15.60;13.95;;;;;;;17.49;100.00;98749.10;3929346;74;43628;-24
2021/06/10 06:50:17;;;;;;;16.17;13.32;;;;;;;17.63;100.00;98753.61;3932303;73;43704;-24
2021/06/10 06:55:24;;;;;;;14.95;13.35;;;;;;;17.81;100.00;98758.55;3927029;73;43677;-24
2021/06/10 07:00:30;;;;;;;15.00;13.30;;;;;;;17.99;100.00;98752.58;3903637;73;43433;-24
2021/06/10 07:05:36;;;;;;;16.00;13.40;;;;;;;18.17;100.00;98756.67;3932973;75;43336;-24
2021/06/10 07:10:43;;;;;;;15.10;13.50;;;;;;;18.30;100.00;98753.15;3917491;73;44196;-24
2021/06/10 07:15:53;;;;;;;17.57;14.23;;;;;;;18.41;100.00;98758.02;3930816;75;43369;-22
2021/06/10 07:20:59;;;;;;;15.70;14.10;;;;;;;18.61;100.00;98754.54;3919106;75;43680;-23
2021/06/10 07:26:05;;;;;;;18.25;14.85;;;;;;;18.84;100.00;98749.23;3933979;73;44145;-23
2021/06/10 07:31:11;;;;;;;16.82;15.00;;;;;;;19.07;100.00;98754.33;3931830;75;43409;-24
2021/06/10 07:36:19;;;;;;;16.17;13.95;;;;;;;19.24;100.00;98756.98;3915481;73;43837;-24
2021/06/10 07:41:25;;;;;;;16.00;14.40;;;;;;;19.47;100.00;98763.05;3907362;74;43388;-24
2021/06/10 07:46:32;;;;;;;19.55;14.65;;;;;;;19.55;100.00;98764.23;3784392;74;44068;-24
2021/06/10 07:51:40;;;;;;;15.65;14.00;;;;;;;19.75;100.00;98767.45;3722561;79;43677;-24
2021/06/10 07:56:46;;;;;;;15.70;13.60;;;;;;;19.90;100.00;98766.73;3719430;79;43275;-24
2021/06/10 08:01:54;;;;;;;16.12;13.85;;;;;;;20.07;100.00;98767.11;3727203;79;43557;-24
2021/06/10 08:07:01;;;;;;;16.42;14.73;;;;;;;20.26;100.00;98766.74;3679938;80;44531;-23
2021/06/10 08:12:10;;;;;;;15.98;13.90;;;;;;;20.48;100.00;98773.28;3728916;79;43905;-23
2021/06/10 08:17:17;;;;;;;15.25;13.65;;;;;;;20.60;100.00;98774.79;3725817;79;43685;-23
2021/06/10 08:22:23;;;;;;;14.90;13.32;;;;;;;20.76;100.00;98777.06;3732451;79;43507;-23
2021/06/10 08:27:29;;;;;;;16.02;14.33;;;;;;;20.91;100.00;98778.67;3733047;79;43591;-25
2021/06/10 08:32:34;;;;;;;14.85;13.45;;;;;;;20.96;100.00;98775.27;3735207;79;42854;-24
2021/06/10 08:37:42;;;;;;;14.87;13.38;;;;;;;21.02;100.00;98767.53;3750374;77;44466;-24
2021/06/10 08:48:02;;;;;;;15.20;13.70;;;;;;;21.26;100.00;98772.75;3967732;73;27711;-22
2021/06/10 08:53:11;;;;;;;13.93;12.53;;;;;;;21.55;100.00;98778.61;3913728;75;44016;-23
2021/06/10 08:58:16;;;;;;;15.48;13.88;;;;;;;21.79;100.00;98770.11;3905223;74;43714;-23
2021/06/10 09:03:24;;;;;;;13.83;12.43;;;;;;;21.86;100.00;98769.50;3936175;74;43169;-23
2021/06/10 09:08:30;;;;;;;14.78;13.28;;;;;;;22.06;100.00;98765.69;3922066;74;43892;-23
2021/06/10 09:13:45;;;;;;;14.95;13.35;;;;;;;22.33;100.00;98768.14;3923457;74;43682;-23
2021/06/10 09:18:54;;;;;;;15.48;13.98;;;;;;;22.39;100.00;98759.52;3918989;75;44027;-24
2021/06/10 09:24:19;;;;;;;14.55;13.15;;;;;;;22.72;100.00;98761.87;3934319;75;43355;-24
2021/06/10 09:29:38;;;;;;;15.53;13.95;;;;;;;23.01;100.00;98752.45;3926930;75;43447;-24
2021/06/10 09:34:52;;;;;;;14.87;13.48;;;;;;;22.88;100.00;98760.89;3918496;74;44032;-24
2021/06/10 09:39:59;;;;;;;14.80;13.30;;;;;;;22.84;100.00;98752.28;3915809;74;43231;-24
2021/06/10 09:45:08;;;;;;;15.80;14.23;;;;;;;23.04;100.00;98749.25;3912198;74;44095;-24
2021/06/10 09:50:27;;;;;;;13.38;11.85;;;;;;;23.24;100.00;98748.12;3897199;75;44544;-24
2021/06/10 09:55:39;;;;;;;13.38;12.15;;;;;;;23.38;100.00;98746.83;3904342;74;43999;-24
2021/06/10 10:00:50;;;;;;;12.63;11.15;;;;;;;23.09;100.00;98738.40;3903968;75;43392;-24
2021/06/10 10:05:59;;;;;;;12.75;11.55;;;;;;;23.31;100.00;98734.27;3904292;74;43395;-24
2021/06/10 10:11:07;;;;;;;11.97;10.72;;;;;;;23.13;100.00;98732.41;3883698;74;43908;-24
2021/06/10 10:16:15;;;;;;;12.25;10.95;;;;;;;23.20;100.00;98717.52;3882472;74;44032;-23
2021/06/10 10:21:27;;;;;;;11.48;10.23;;;;;;;23.53;100.00;98709.79;3912166;75;43280;-23
2021/06/10 10:26:34;;;;;;;11.95;10.72;;;;;;;23.37;93.57;98712.16;3886244;74;44397;-23
2021/06/10 10:31:44;;;;;;;12.00;10.82;;;;;;;23.43;97.48;98720.55;3905293;75;44030;-23
2021/06/10 10:36:52;;;;;;;12.30;10.53;;;;;;;23.55;96.92;98721.39;3890571;74;43449;-23
2021/06/10 10:41:59;;;;;;;11.70;10.43;;;;;;;23.79;94.01;98704.32;3882076;75;43464;-23
2021/06/10 10:47:08;;;;;;;12.58;11.38;;;;;;;23.60;96.97;98714.62;3931223;74;44177;-23
2021/06/10 10:57:48;;;;;;;11.60;10.43;;;;;;;23.44;86.14;98716.73;3997436;73;27215;-24
2021/06/10 11:09:04;;;;;;;9.63;8.73;;;;;;;23.95;81.10;98719.80;4006660;72;27209;-24
2021/06/10 11:14:22;;;;;;;9.80;8.90;;;;;;;24.20;87.41;98725.04;3932018;74;43640;-24
2021/06/10 11:19:30;;;;;;;10.78;9.73;;;;;;;24.83;78.75;98722.45;3913516;74;43270;-24
2021/06/10 11:30:21;;;;;;;9.55;8.65;;;;;;;24.67;72.52;98714.94;4013992;73;27194;-24
2021/06/10 11:35:47;;;;;;;9.80;8.90;;;;;;;24.33;80.34;98732.73;3942143;75;43073;-23
2021/06/10 11:41:01;;;;;;;7.87;7.08;;;;;;;24.29;78.49;98740.09;3940815;74;43487;-23
2021/06/10 11:46:10;;;;;;;7.25;6.00;;;;;;;23.34;79.77;98740.12;3949547;73;44042;-23
2021/06/10 11:51:22;;;;;;;6.35;4.83;;;;;;;21.40;85.28;98746.06;3945353;74;44019;-24
2021/06/10 11:56:29;;;;;;;5.20;4.35;;;;;;;20.49;86.58;98758.54;3954894;74;44006;-23
2021/06/10 12:01:35;;;;;;;5.45;4.80;;;;;;;19.53;86.83;98752.13;3932004;74;43373;-23
2021/06/10 12:06:41;;;;;;;4.65;4.25;;;;;;;18.99;96.57;98755.39;3915654;75;44148;-23
2021/06/10 12:17:03;;;;;;;5.33;4.67;;;;;;;18.29;100.00;98742.77;3968115;72;27208;-22
2021/06/10 12:22:09;;;;;;;4.72;4.33;;;;;;;18.36;100.00;98726.94;3898758;75;43655;-23
2021/06/10 12:27:17;;;;;;;3.98;3.58;;;;;;;18.58;100.00;98723.56;3906964;74;44077;-23
2021/06/10 12:32:29;;;;;;;4.45;4.05;;;;;;;18.70;99.42;98708.27;3917015;75;43373;-23
2021/06/10 12:37:35;;;;;;;4.20;3.80;;;;;;;19.14;89.79;98692.38;3920103;75;44012;-23
2021/06/10 12:42:41;;;;;;;4.35;3.95;;;;;;;19.62;98.94;98684.97;3916782;74;43716;-23
2021/06/10 12:47:47;;;;;;;4.05;3.75;;;;;;;20.11;96.79;98678.62;3914858;74;43282;-23
2021/06/10 12:52:53;;;;;;;4.85;3.40;;;;;;;20.40;99.98;98672.28;3900658;74;43986;-24
2021/06/10 12:58:00;;;;;;;4.67;3.47;;;;;;;20.74;96.70;98683.86;3921196;74;43386;-23
2021/06/10 13:03:08;;;;;;;3.08;2.83;;;;;;;20.84;98.95;98673.28;3911018;75;43391;-23
2021/06/10 13:08:14;;;;;;;3.30;2.58;;;;;;;21.22;88.97;98673.72;3909905;75;43452;-23
2021/06/10 13:13:34;;;;;;;2.80;2.60;;;;;;;21.82;90.53;98670.89;3903027;74;44071;-23
2021/06/10 13:18:40;;;;;;;2.27;2.08;;;;;;;22.01;75.19;98664.05;3823993;77;44026;-24
2021/06/10 13:23:48;;;;;;;2.52;2.33;;;;;;;22.39;72.07;98661.55;3809126;77;43721;-23
2021/06/10 13:29:04;;;;;;;3.00;2.70;;;;;;;22.68;71.48;98662.33;3800808;77;44075;-24
2021/06/10 13:34:12;;;;;;;3.95;3.05;;;;;;;22.72;64.47;98653.38;3825567;77;43448;-24
2021/06/10 13:39:18;;;;;;;3.80;3.50;;;;;;;22.98;63.99;98651.28;3830129;76;43494;-24
2021/06/10 13:44:25;;;;;;;4.50;4.10;;;;;;;23.38;69.42;98656.11;3878648;76;43375;-23
2021/06/10 13:49:31;;;;;;;5.65;4.60;;;;;;;22.96;70.32;98663.05;3796018;77;43356;-23
2021/06/10 13:54:37;;;;;;;5.20;4.70;;;;;;;23.00;78.70;98659.28;3847272;76;43329;-24
2021/06/10 13:59:44;;;;;;;6.72;6.10;;;;;;;23.35;81.01;98656.57;3876746;76;43143;-24
2021/06/10 14:04:51;;;;;;;7.10;6.40;;;;;;;23.83;79.25;98651.02;3832102;76;44536;-24
2021/06/10 14:15:15;;;;;;;7.83;7.08;;;;;;;23.63;76.78;98661.89;4002754;73;27203;-23
2021/06/10 14:20:22;;;;;;;8.38;6.53;;;;;;;23.21;83.75;98649.66;3957711;74;43996;-24
2021/06/10 14:25:29;;;;;;;7.42;6.83;;;;;;;23.30;86.27;98650.13;3947454;74;44434;-23
2021/06/10 14:30:51;;;;;;;7.12;6.45;;;;;;;23.96;84.55;98642.53;3941968;73;43684;-24
2021/06/10 14:35:57;;;;;;;7.80;7.00;;;;;;;24.74;81.62;98646.23;3930636;74;43341;-24
2021/06/10 14:41:04;;;;;;;7.20;6.60;;;;;;;24.74;78.33;98658.64;3925097;74;44069;-24
2021/06/10 14:46:10;;;;;;;7.67;6.90;;;;;;;25.36;79.95;98650.52;3948996;74;43346;-24
2021/06/10 14:51:16;;;;;;;7.72;7.03;;;;;;;25.12;80.81;98654.84;3941547;74;44082;-24
2021/06/10 14:56:24;;;;;;;7.20;6.53;;;;;;;25.35;78.91;98659.88;3940243;74;44089;-24
2021/06/10 15:01:30;;;;;;;7.83;7.03;;;;;;;25.47;77.27;98650.17;3848630;76;43330;-24
2021/06/10 15:06:36;;;;;;;7.45;6.80;;;;;;;25.91;77.72;98645.25;3948410;74;43691;-24
2021/06/10 15:11:42;;;;;;;5.92;5.20;;;;;;;25.45;71.06;98643.55;3941439;74;43378;-24
2021/06/10 15:22:01;;;;;;;5.25;4.75;;;;;;;24.93;60.04;98644.64;3954096;73;27157;-23
2021/06/10 15:27:08;;;;;;;5.55;5.05;;;;;;;24.54;67.53;98626.02;3983721;73;43696;-23
2021/06/10 15:32:14;;;;;;;6.22;5.65;;;;;;;24.64;67.66;98634.19;4008106;72;43334;-24
2021/06/10 15:37:22;;;;;;;6.28;5.67;;;;;;;24.75;70.48;98634.69;3981752;73;43735;-23
2021/06/10 15:42:28;;;;;;;5.85;5.37;;;;;;;24.60;71.66;98638.81;4009534;73;44497;-24
2021/06/10 15:52:48;;;;;;;6.50;5.90;;;;;;;24.60;69.18;98637.95;3994860;73;27202;-22
2021/06/10 15:57:57;;;;;;;6.10;5.60;;;;;;;24.92;74.23;98645.72;3928277;73;43339;-24
2021/06/10 16:03:03;;;;;;;5.95;5.35;;;;;;;24.85;71.62;98645.03;3919819;73;44816;-24
2021/06/10 16:08:11;;;;;;;5.90;5.40;;;;;;;24.88;71.32;98639.84;3921334;75;44070;-24
2021/06/10 16:13:17;;;;;;;5.45;4.95;;;;;;;25.10;69.60;98646.55;3923115;73;42681;-24
2021/06/10 16:18:23;;;;;;;5.12;4.60;;;;;;;25.38;63.77;98630.42;3916360;75;43663;-23
2021/06/10 16:23:31;;;;;;;4.85;4.42;;;;;;;25.35;62.49;98635.91;3914017;73;44097;-24
2021/06/10 16:28:37;;;;;;;5.05;4.60;;;;;;;25.59;60.83;98630.73;3920781;73;43777;-24
2021/06/10 16:33:44;;;;;;;5.45;5.00;;;;;;;25.44;59.64;98629.46;3925368;73;44028;-24
2021/06/10 16:38:50;;;;;;;5.70;5.15;;;;;;;25.87;56.49;98622.01;3922315;73;44110;-24
2021/06/10 16:43:56;;;;;;;5.20;4.70;;;;;;;25.64;61.81;98616.47;3917167;73;44073;-24
2021/06/10 16:49:03;;;;;;;5.35;4.95;;;;;;;25.54;63.41;98606.16;3931840;75;43712;-24
2021/06/10 16:54:10;;;;;;;6.47;5.87;;;;;;;25.23;65.11;98608.98;3914429;73;43334;-24
2021/06/10 16:59:18;;;;;;;6.75;5.58;;;;;;;24.91;66.53;98609.05;3908437;75;44042;-22
2021/06/10 17:09:37;;;;;;;6.55;5.95;;;;;;;24.73;64.75;98618.95;3972203;73;28469;-20
2021/06/10 17:14:44;;;;;;;6.80;5.97;;;;;;;24.69;72.87;98606.74;3921670;74;44030;-22
2021/06/10 17:19:51;;;;;;;6.65;6.05;;;;;;;24.26;73.73;98621.36;3942026;74;43961;-21
2021/06/10 17:24:57;;;;;;;6.95;6.25;;;;;;;24.23;75.99;98633.72;3924938;74;44040;-22
2021/06/10 17:35:36;;;;;;;7.37;5.90;;;;;;;23.39;69.94;98626.16;4168848;69;27550;-24
2021/06/10 17:40:43;;;;;;;6.20;5.60;;;;;;;23.28;78.01;98628.37;4098646;70;43515;-23
2021/06/10 17:51:03;;;;;;;6.33;4.37;;;;;;;22.70;80.63;98638.19;3963640;72;27803;-19
2021/06/10 17:56:10;;;;;;;4.42;3.87;;;;;;;22.49;80.56;98645.08;3922710;74;44429;-23
2021/06/10 18:01:17;;;;;;;4.53;4.12;;;;;;;22.18;80.21;98647.79;3924763;75;43325;-23
2021/06/10 18:06:24;;;;;;;4.08;3.70;;;;;;;22.10;83.08;98653.61;3911474;75;44058;-23
2021/06/10 18:11:30;;;;;;;5.28;4.00;;;;;;;21.78;85.90;98659.25;3925743;74;44783;-22
2021/06/10 18:16:36;;;;;;;4.87;3.92;;;;;;;21.59;86.96;98664.73;3932657;75;44089;-22
2021/06/10 18:21:42;;;;;;;4.00;3.70;;;;;;;21.61;86.49;98663.98;3929591;74;43750;-22
2021/06/10 18:26:48;;;;;;;4.40;3.98;;;;;;;21.47;86.72;98663.23;3936632;74;44081;-21
2021/06/10 18:31:57;;;;;;;5.60;3.90;;;;;;;21.39;86.99;98660.79;3924688;75;43300;-22
2021/06/10 18:37:04;;;;;;;3.87;3.58;;;;;;;21.14;88.82;98648.50;3920235;75;43684;-22
2021/06/10 18:42:10;;;;;;;5.10;3.52;;;;;;;21.11;90.09;98648.94;3919193;74;44095;-22
2021/06/10 18:47:18;;;;;;;5.17;4.00;;;;;;;21.17;90.82;98643.41;3918839;75;44078;-22
2021/06/10 18:52:24;;;;;;;4.87;4.03;;;;;;;21.06;92.42;98642.77;3925245;74;44070;-22
2021/06/10 18:57:30;;;;;;;6.08;3.95;;;;;;;21.14;92.39;98637.54;3885531;75;44086;-22
2021/06/10 19:02:36;;;;;;;5.87;4.17;;;;;;;21.15;93.94;98633.74;3875874;75;43355;-22
2021/06/10 19:07:44;;;;;;;4.37;3.98;;;;;;;21.08;94.51;98633.25;3912025;75;44037;-22
2021/06/10 19:12:49;;;;;;;5.78;5.00;;;;;;;21.03;94.28;98622.16;3885371;74;44301;-22
2021/06/10 19:17:57;;;;;;;7.33;5.87;;;;;;;20.91;94.95;98624.77;3903076;75;43756;-22
2021/06/10 19:23:03;;;;;;;6.03;5.42;;;;;;;20.64;95.30;98629.05;3884317;74;44732;-22
2021/06/10 19:28:09;;;;;;;6.97;5.72;;;;;;;20.48;96.86;98629.59;3886719;74;43571;-22
2021/06/10 19:33:23;;;;;;;5.92;5.33;;;;;;;20.30;98.54;98624.33;3897920;75;44025;-22
2021/06/10 19:38:31;;;;;;;6.53;5.60;;;;;;;20.25;100.00;98633.73;3895422;74;44284;-20
2021/06/10 19:48:54;;;;;;;5.78;5.28;;;;;;;20.04;100.00;98640.36;3984215;73;27647;-19
2021/06/10 19:54:03;;;;;;;5.97;5.40;;;;;;;19.93;100.00;98653.34;3892103;75;43654;-20
2021/06/10 19:59:09;;;;;;;5.70;5.20;;;;;;;19.74;100.00;98638.66;3891812;74;43763;-21
2021/06/10 20:04:15;;;;;;;6.10;4.70;;;;;;;19.71;100.00;98636.66;3896139;74;43322;-21
2021/06/10 20:09:24;;;;;;;5.78;5.28;;;;;;;19.71;100.00;98639.94;3891425;75;43756;-22
2021/06/10 20:14:32;;;;;;;6.20;5.60;;;;;;;19.56;100.00;98634.20;3892107;74;44031;-22
2021/06/10 20:24:51;;;;;;;6.87;6.10;;;;;;;19.07;100.00;98628.20;4028318;72;27850;-19
2021/06/10 20:35:22;;;;;;;6.33;5.75;;;;;;;19.04;100.00;98631.89;3933114;73;43207;-20
2021/06/10 20:40:30;;;;;;;7.03;5.90;;;;;;;19.06;100.00;98629.25;3923957;73;43701;-23
2021/06/10 20:45:39;;;;;;;5.72;5.12;;;;;;;18.98;100.00;98634.94;3918487;75;43393;-21
2021/06/10 20:56:00;;;;;;;7.70;7.00;;;;;;;18.94;100.00;98631.77;3961439;73;27288;-22
2021/06/10 21:01:08;;;;;;;10.08;7.58;;;;;;;18.79;100.00;98640.14;3946310;73;43190;-21
2021/06/10 21:06:14;;;;;;;6.80;6.20;;;;;;;18.65;100.00;98639.81;3922656;73;44070;-22
2021/06/10 21:11:20;;;;;;;8.38;6.87;;;;;;;18.65;100.00;98642.54;3934323;74;44057;-21
2021/06/10 21:16:26;;;;;;;7.08;6.40;;;;;;;18.58;100.00;98647.16;3928007;74;42914;-22
2021/06/10 21:21:36;;;;;;;7.37;6.12;;;;;;;18.56;100.00;98645.16;3916831;73;44070;-21
2021/06/10 21:26:43;;;;;;;7.97;7.25;;;;;;;18.50;100.00;98640.55;3918371;73;43372;-21
2021/06/10 21:31:50;;;;;;;7.92;7.12;;;;;;;18.41;100.00;98639.35;3947398;73;44026;-21
2021/06/10 21:36:57;;;;;;;6.80;6.20;;;;;;;18.33;100.00;98641.78;3937292;74;43874;-21
2021/06/10 21:42:07;;;;;;;6.87;6.10;;;;;;;18.26;100.00;98640.91;3931736;73;43268;-21
2021/06/10 21:47:12;;;;;;;6.62;6.00;;;;;;;18.22;100.00;98640.16;3930277;73;44061;-22
2021/06/10 21:52:18;;;;;;;9.03;8.20;;;;;;;18.16;100.00;98637.73;3919776;73;43504;-21
2021/06/10 21:57:24;;;;;;;9.28;8.28;;;;;;;18.12;100.00;98635.09;3901625;74;44165;-22
2021/06/10 22:07:43;;;;;;;7.85;7.10;;;;;;;17.98;100.00;98631.48;3948449;73;27213;-19
2021/06/10 22:12:50;;;;;;;7.55;6.85;;;;;;;17.87;100.00;98635.63;3893211;74;43335;-21
2021/06/10 22:17:56;;;;;;;7.25;6.65;;;;;;;17.80;100.00;98641.55;3895684;75;44074;-21
2021/06/10 22:23:03;;;;;;;6.90;6.17;;;;;;;17.72;100.00;98628.94;3896108;75;43657;-21
2021/06/10 22:28:10;;;;;;;6.92;5.97;;;;;;;17.64;100.00;98634.56;3894774;74;44067;-21
2021/06/10 22:33:18;;;;;;;7.10;6.12;;;;;;;17.59;100.00;98628.86;3892422;74;43694;-21
2021/06/10 22:38:27;;;;;;;7.05;6.40;;;;;;;17.54;100.00;98631.69;3890878;75;43687;-21
2021/06/10 22:43:36;;;;;;;6.30;5.70;;;;;;;17.47;100.00;98632.16;3894323;74;43677;-21
2021/06/10 22:48:42;;;;;;;6.20;5.35;;;;;;;17.39;100.00;98632.33;3903590;74;43649;-22
2021/06/10 22:53:48;;;;;;;5.47;4.97;;;;;;;17.31;100.00;98633.86;3899087;75;44004;-21
2021/06/10 22:58:54;;;;;;;4.85;4.45;;;;;;;17.27;100.00;98633.92;3896800;74;43824;-21
2021/06/10 23:09:14;;;;;;;7.17;6.47;;;;;;;17.15;100.00;98625.48;3957676;73;27169;-19
2021/06/10 23:14:20;;;;;;;6.83;6.03;;;;;;;17.07;100.00;98626.47;3888489;75;43607;-21
2021/06/10 23:19:25;;;;;;;6.97;6.28;;;;;;;17.03;100.00;98619.73;3913613;74;42963;-21
2021/06/10 23:24:32;;;;;;;6.28;5.67;;;;;;;16.96;100.00;98624.30;3923324;75;44071;-20
2021/06/10 23:29:38;;;;;;;6.87;6.17;;;;;;;16.95;100.00;98620.72;3911614;74;43704;-20
2021/06/10 23:34:45;;;;;;;7.37;6.60;;;;;;;16.91;100.00;98620.25;3917009;75;44089;-21
2021/06/10 23:39:50;;;;;;;7.47;6.33;;;;;;;16.84;100.00;98610.34;3922688;75;43563;-22
2021/06/10 23:44:56;;;;;;;7.45;6.75;;;;;;;16.77;100.00;98613.01;3904208;75;44690;-21
2021/06/10 23:50:02;;;;;;;7.25;6.50;;;;;;;16.73;100.00;98607.13;3909051;74;43338;-21
2021/06/10 23:55:11;;;;;;;7.03;6.33;;;;;;;16.65;100.00;98607.27;3908141;75;44775;-21
